Time;durP1;ratioP1;P1;durP2;ratioP2;P2;SDS_P1;SDS_P2;PMS_P1;PMS_P2;Temp;Humidity;BMP_temperature;BMP_pressure;BME280_temperature;BME280_humidity;BME280_pressure;Samples;Min_cycle;Max_cycle;Signal;HPM_P1;HPM_P2
2023/10/02 00:01:17;;;;;;;24.52;9.40;;;;;;;14.59;100.00;102091.63;5031772;28;20040;-81
2023/10/02 00:03:45;;;;;;;22.08;9.65;;;;;;;14.53;100.00;102086.81;5031790;28;20116;-81
2023/10/02 00:06:16;;;;;;;23.33;9.45;;;;;;;14.46;100.00;102094.50;5031528;28;20042;-81
2023/10/02 00:08:42;;;;;;;23.40;10.05;;;;;;;14.43;100.00;102100.13;5030621;28;20109;-80
2023/10/02 00:11:39;;;;;;;31.23;9.98;;;;;;;14.37;100.00;102096.16;5031518;28;20119;-80
2023/10/02 00:14:19;;;;;;;22.60;10.02;;;;;;;14.30;100.00;102100.34;5031907;28;20029;-80
2023/10/02 00:17:04;;;;;;;30.73;10.75;;;;;;;14.24;100.00;102101.75;5031812;28;20508;-80
2023/10/02 00:19:49;;;;;;;20.88;9.65;;;;;;;14.20;100.00;102096.78;5031518;28;20108;-82
2023/10/02 00:22:35;;;;;;;23.63;9.52;;;;;;;14.13;100.00;102104.47;5031328;28;20025;-82
2023/10/02 00:25:16;;;;;;;25.05;10.15;;;;;;;14.05;100.00;102109.66;5031591;28;20033;-81
2023/10/02 00:27:46;;;;;;;23.98;9.45;;;;;;;14.02;100.00;102105.41;4998789;28;20030;-81
2023/10/02 00:30:13;;;;;;;26.88;9.20;;;;;;;13.96;100.00;102105.94;5031467;28;20117;-81
2023/10/02 00:32:41;;;;;;;31.00;10.75;;;;;;;13.90;100.00;102099.28;5031159;28;20037;-81
2023/10/02 00:35:10;;;;;;;22.25;10.27;;;;;;;13.88;100.00;102100.38;5031249;28;20042;-80
2023/10/02 00:37:51;;;;;;;23.70;9.60;;;;;;;13.82;100.00;102096.38;5030748;28;20051;-81
2023/10/02 00:40:26;;;;;;;21.33;8.95;;;;;;;13.80;100.00;102092.16;5031410;28;20048;-81
2023/10/02 00:42:58;;;;;;;21.08;9.50;;;;;;;13.73;100.00;102084.66;5030786;28;20030;-80
2023/10/02 00:45:30;;;;;;;29.48;11.02;;;;;;;13.71;100.00;102089.28;5030893;28;20134;-82
2023/10/02 00:48:24;;;;;;;;;;;;;;;13.69;100.00;102090.38;5030990;28;20029;-80
2023/10/02 00:50:49;;;;;;;22.23;9.55;;;;;;;13.65;100.00;102086.28;5030252;28;19913;-80
2023/10/02 00:53:15;;;;;;;21.95;9.68;;;;;;;13.59;100.00;102076.94;5012210;28;20045;-80
2023/10/02 00:55:43;;;;;;;20.98;9.75;;;;;;;13.57;100.00;102089.59;5031009;28;20068;-80
2023/10/02 00:58:15;;;;;;;19.63;8.95;;;;;;;13.55;100.00;102083.50;5030503;28;20081;-80
2023/10/02 01:00:48;;;;;;;21.63;9.35;;;;;;;13.53;100.00;102074.78;5030784;28;20060;-80
2023/10/02 01:03:16;;;;;;;23.02;10.45;;;;;;;13.51;100.00;102082.94;5030814;28;20029;-80
2023/10/02 01:05:50;;;;;;;32.40;12.00;;;;;;;13.51;100.00;102077.59;5030304;28;20493;-79
2023/10/02 01:08:23;;;;;;;26.95;10.73;;;;;;;13.51;100.00;102076.72;5030598;28;20095;-81
2023/10/02 01:11:00;;;;;;;24.35;10.82;;;;;;;13.51;100.00;102082.06;5030670;28;20052;-79
2023/10/02 01:13:32;;;;;;;23.80;10.70;;;;;;;13.52;100.00;102089.13;5030600;28;20120;-79
2023/10/02 01:16:03;;;;;;;31.25;13.48;;;;;;;13.54;100.00;102087.16;5030902;28;20036;-79
2023/10/02 01:18:28;;;;;;;29.05;11.70;;;;;;;13.53;100.00;102083.66;5013102;28;20029;-79
2023/10/02 01:20:59;;;;;;;35.33;12.95;;;;;;;13.55;100.00;102073.69;5033395;28;20089;-79
2023/10/02 01:23:30;;;;;;;31.40;12.20;;;;;;;13.54;100.00;102074.66;5034887;28;20121;-81
2023/10/02 01:26:00;;;;;;;25.08;12.05;;;;;;;13.55;100.00;102075.50;5035118;28;20029;-80
2023/10/02 01:28:51;;;;;;;33.78;13.32;;;;;;;13.56;100.00;102075.38;5034897;28;20033;-81
2023/10/02 01:31:31;;;;;;;;;;;;;;;13.57;100.00;102076.22;5035113;28;20029;-82
2023/10/02 01:33:59;;;;;;;30.15;12.57;;;;;;;13.57;100.00;102074.41;5034631;28;19913;-81
2023/10/02 01:36:28;;;;;;;35.85;14.27;;;;;;;13.57;100.00;102085.09;5034364;28;20323;-82
2023/10/02 01:38:59;;;;;;;33.47;12.85;;;;;;;13.62;100.00;102087.38;5034601;28;20049;-81
2023/10/02 01:41:26;;;;;;;31.90;13.43;;;;;;;13.65;100.00;102089.78;5034571;28;20052;-81
2023/10/02 01:43:55;;;;;;;35.15;13.63;;;;;;;13.66;100.00;102080.81;5034620;28;20179;-81
2023/10/02 01:46:22;;;;;;;29.52;13.18;;;;;;;13.66;100.00;102077.25;5034518;28;20037;-81
2023/10/02 01:48:48;;;;;;;33.78;13.40;;;;;;;13.67;100.00;102076.28;5034522;28;20029;-81
2023/10/02 01:51:29;;;;;;;31.00;14.25;;;;;;;13.67;100.00;102087.00;5034540;28;20034;-81
2023/10/02 01:54:03;;;;;;;34.53;13.23;;;;;;;13.67;100.00;102077.13;5026637;28;20065;-80
2023/10/02 01:56:30;;;;;;;34.97;14.27;;;;;;;13.71;100.00;102089.28;5054199;28;20508;-80
2023/10/02 01:59:09;;;;;;;40.08;15.65;;;;;;;13.73;100.00;102079.31;5053258;28;20029;-82
2023/10/02 02:01:46;;;;;;;39.00;15.40;;;;;;;13.80;100.00;102076.94;5054489;28;20124;-78
2023/10/02 02:04:15;;;;;;;36.72;15.07;;;;;;;13.83;100.00;102073.19;5056528;28;20029;-78
2023/10/02 02:06:52;;;;;;;32.90;14.85;;;;;;;13.84;100.00;102058.81;5056214;28;20041;-78
2023/10/02 02:09:25;;;;;;;32.35;14.23;;;;;;;13.83;100.00;102067.81;5056618;28;20032;-80
2023/10/02 02:12:10;;;;;;;35.67;14.15;;;;;;;13.80;100.00;102065.41;5056337;28;20033;-78
2023/10/02 02:14:50;;;;;;;30.35;13.00;;;;;;;13.75;100.00;102055.94;5056445;28;20060;-78
2023/10/02 02:17:18;;;;;;;32.78;13.63;;;;;;;13.74;100.00;102059.59;5054816;28;20457;-77
2023/10/02 02:19:49;;;;;;;37.90;14.90;;;;;;;13.73;100.00;102062.41;5055680;28;20397;-78
2023/10/02 02:22:16;;;;;;;36.28;15.90;;;;;;;13.72;100.00;102061.56;5054833;28;20055;-78
2023/10/02 02:24:42;;;;;;;30.40;12.90;;;;;;;13.71;100.00;102053.66;5055795;28;20029;-80
2023/10/02 02:27:08;;;;;;;37.05;15.45;;;;;;;13.67;100.00;102065.59;5056167;28;20044;-77
2023/10/02 02:29:34;;;;;;;29.77;13.15;;;;;;;13.66;100.00;102062.09;5055793;28;20031;-77
2023/10/02 02:32:00;;;;;;;34.15;13.80;;;;;;;13.65;100.00;102059.53;5055104;28;20038;-78
2023/10/02 02:34:26;;;;;;;31.40;13.13;;;;;;;13.64;100.00;102057.84;5054598;28;20049;-78
2023/10/02 02:36:54;;;;;;;35.40;14.85;;;;;;;13.62;100.00;102060.63;5055619;28;20538;-79
2023/10/02 02:39:22;;;;;;;35.55;15.98;;;;;;;13.62;100.00;102060.63;5054315;28;20401;-79
2023/10/02 02:44:43;;;;;;;34.72;14.40;;;;;;;13.57;100.00;102055.69;5055501;28;20098;-79
2023/10/02 02:47:12;;;;;;;41.97;15.90;;;;;;;13.55;100.00;102060.31;5055562;28;20037;-78
2023/10/02 02:49:52;;;;;;;48.88;18.23;;;;;;;13.55;100.00;102057.66;5053995;28;20052;-78
2023/10/02 02:52:26;;;;;;;38.78;16.45;;;;;;;13.54;100.00;102044.38;5055298;28;20040;-78
2023/10/02 02:54:58;;;;;;;37.85;15.43;;;;;;;13.51;100.00;102048.19;5040963;28;20061;-79
2023/10/02 02:57:25;;;;;;;42.60;16.33;;;;;;;13.51;100.00;102048.19;5018653;28;20057;-79
2023/10/02 03:02:46;;;;;;;36.33;15.02;;;;;;;13.56;100.00;102045.94;5035486;28;20098;-77
2023/10/02 03:05:20;;;;;;;39.50;15.50;;;;;;;13.57;100.00;102050.34;5035412;28;20030;-77
2023/10/02 03:07:48;;;;;;;42.05;17.75;;;;;;;13.57;100.00;102046.81;5035414;28;20033;-78
2023/10/02 03:10:16;;;;;;;42.75;17.35;;;;;;;13.56;100.00;102048.63;5035045;28;20039;-79
2023/10/02 03:12:48;;;;;;;37.70;15.48;;;;;;;13.54;100.00;102045.25;5034808;28;20041;-78
2023/10/02 03:15:20;;;;;;;;;;;;;;;13.52;100.00;102047.19;5036029;28;20386;-78
2023/10/02 03:17:46;;;;;;;42.58;17.83;;;;;;;13.50;100.00;102048.31;5035368;28;20341;-79
2023/10/02 03:20:24;;;;;;;32.47;14.20;;;;;;;13.46;100.00;102046.88;5035136;28;20100;-79
2023/10/02 03:22:53;;;;;;;34.92;14.75;;;;;;;13.43;100.00;102036.44;5017325;28;20033;-78
2023/10/02 03:25:28;;;;;;;36.30;14.32;;;;;;;13.42;100.00;102042.75;5035625;28;20033;-79
2023/10/02 03:27:57;;;;;;;36.33;15.05;;;;;;;13.40;100.00;102038.41;5034668;28;20038;-79
2023/10/02 03:30:43;;;;;;;38.60;17.10;;;;;;;13.40;100.00;102033.03;5034698;28;20390;-79
2023/10/02 03:33:17;;;;;;;44.13;17.77;;;;;;;13.42;100.00;102038.25;5034443;28;20124;-79
2023/10/02 03:36:10;;;;;;;44.42;17.80;;;;;;;13.41;100.00;102036.56;5034654;28;20406;-79
2023/10/02 03:38:41;;;;;;;45.22;17.55;;;;;;;13.47;100.00;102053.91;5034775;28;20045;-79
2023/10/02 03:41:07;;;;;;;45.90;18.85;;;;;;;13.52;100.00;102049.00;5034836;28;20083;-80
2023/10/02 03:43:42;;;;;;;45.78;16.75;;;;;;;13.58;100.00;102043.16;5034551;28;20030;-80
2023/10/02 03:46:13;;;;;;;40.47;17.20;;;;;;;13.57;100.00;102030.78;5035212;28;20033;-79
2023/10/02 03:48:39;;;;;;;44.92;18.02;;;;;;;13.53;100.00;102034.69;5035262;28;20124;-79
2023/10/02 03:51:04;;;;;;;40.13;18.70;;;;;;;13.48;100.00;102037.75;5034122;28;20052;-78
2023/10/02 03:53:30;;;;;;;36.53;16.42;;;;;;;13.40;100.00;102032.19;5034138;28;20054;-78
2023/10/02 03:58:57;;;;;;;44.05;17.85;;;;;;;13.31;100.00;102020.38;5034480;28;20040;-79
2023/10/02 04:01:30;;;;;;;39.50;16.45;;;;;;;13.29;100.00;102025.03;5034483;28;20026;-78
2023/10/02 04:04:10;;;;;;;53.17;18.80;;;;;;;13.27;100.00;102024.31;5016461;28;20474;-78
2023/10/02 04:06:35;;;;;;;49.42;17.33;;;;;;;13.24;100.00;102019.19;5034476;28;20112;-78
2023/10/02 04:09:09;;;;;;;45.47;18.60;;;;;;;13.21;100.00;102016.78;5034048;28;20040;-78
2023/10/02 04:11:34;;;;;;;44.50;18.40;;;;;;;13.16;100.00;102013.66;5034894;28;20032;-78
2023/10/02 04:14:00;;;;;;;40.53;17.70;;;;;;;13.16;100.00;102021.69;5033606;28;20041;-79
2023/10/02 04:16:28;;;;;;;42.65;17.67;;;;;;;13.15;100.00;102031.53;5034687;28;20091;-79
2023/10/02 04:19:01;;;;;;;48.80;17.92;;;;;;;13.13;100.00;102028.13;5033609;28;20470;-79
2023/10/02 04:21:27;;;;;;;43.28;18.23;;;;;;;13.12;100.00;102022.91;5033737;28;20030;-79
2023/10/02 04:23:53;;;;;;;43.10;17.20;;;;;;;13.08;100.00;102021.44;5034094;28;20109;-79
2023/10/02 04:26:20;;;;;;;41.35;16.80;;;;;;;13.05;100.00;102027.91;5033718;28;20030;-79
2023/10/02 04:29:13;;;;;;;46.38;16.73;;;;;;;13.03;100.00;102022.69;5034368;28;20034;-80
2023/10/02 04:31:41;;;;;;;42.13;15.73;;;;;;;13.01;100.00;102027.31;5034086;28;20086;-79
2023/10/02 04:34:23;;;;;;;43.15;18.15;;;;;;;13.00;100.00;102019.41;5033708;28;20033;-79
2023/10/02 04:36:49;;;;;;;45.03;17.95;;;;;;;12.96;100.00;102020.66;5033607;28;20034;-79
2023/10/02 04:42:12;;;;;;;50.22;18.73;;;;;;;12.92;100.00;102028.06;5033988;28;20485;-79
2023/10/02 04:44:45;;;;;;;48.90;18.63;;;;;;;12.94;100.00;102026.09;5034075;28;20056;-79
2023/10/02 04:47:17;;;;;;;50.42;19.15;;;;;;;12.96;100.00;102026.84;5016430;28;20045;-79
2023/10/02 04:55:23;;;;;;;52.72;19.63;;;;;;;13.14;100.00;102039.69;5033428;28;20536;-80
2023/10/02 04:57:54;;;;;;;53.53;20.58;;;;;;;13.18;100.00;102031.28;5033232;28;20486;-80
2023/10/02 05:01:17;;;;;;;60.17;21.08;;;;;;;13.26;100.00;102035.97;5033555;28;20030;-80
2023/10/02 05:03:17;;;;;;;65.32;23.40;;;;;;;13.34;100.00;102033.53;5032177;28;20057;-80
2023/10/02 05:05:48;;;;;;;64.25;22.50;;;;;;;13.41;100.00;102031.22;5033335;28;20053;-79
2023/10/02 05:08:29;;;;;;;56.38;21.95;;;;;;;13.49;100.00;102033.22;5033273;28;20041;-80
2023/10/02 05:11:03;;;;;;;75.50;24.15;;;;;;;13.56;100.00;102032.59;5033171;28;20034;-80
2023/10/02 05:16:13;;;;;;;53.83;21.05;;;;;;;13.67;100.00;102022.81;5033120;28;20456;-79
2023/10/02 05:18:44;;;;;;;55.50;20.70;;;;;;;13.68;100.00;102025.34;5033115;28;20037;-79
2023/10/02 05:21:09;;;;;;;;;;;;;;;13.69;100.00;102020.84;5016817;28;20087;-79
2023/10/02 05:23:36;;;;;;;50.28;19.70;;;;;;;13.68;100.00;102024.50;5032947;28;19913;-78
2023/10/02 05:26:02;;;;;;;60.90;20.33;;;;;;;13.66;100.00;102031.78;5033053;28;20037;-80
2023/10/02 05:28:42;;;;;;;57.28;21.08;;;;;;;13.64;100.00;102033.75;5015616;28;20086;-80
2023/10/02 05:31:12;;;;;;;58.08;21.25;;;;;;;13.68;100.00;102045.91;5033513;28;20041;-80
2023/10/02 05:33:38;;;;;;;54.30;21.52;;;;;;;13.67;100.00;102044.19;5015701;28;20045;-80
2023/10/02 05:36:08;;;;;;;54.60;21.23;;;;;;;13.68;100.00;102041.41;5032836;28;20064;-80
2023/10/02 05:38:34;;;;;;;60.83;22.98;;;;;;;13.71;100.00;102033.09;5032896;28;20033;-80
2023/10/02 05:41:03;;;;;;;50.83;19.85;;;;;;;13.72;100.00;102032.13;5033466;28;20037;-79
2023/10/02 05:43:31;;;;;;;51.05;20.38;;;;;;;13.75;100.00;102036.38;5015800;28;20029;-80
2023/10/02 05:45:57;;;;;;;55.42;21.58;;;;;;;13.75;100.00;102036.38;5033122;28;20370;-80
2023/10/02 05:50:59;;;;;;;46.50;19.55;;;;;;;13.75;100.00;102044.41;5032896;28;20030;-80
2023/10/02 05:53:26;;;;;;;51.65;19.73;;;;;;;13.76;100.00;102048.75;5032873;28;20140;-80
2023/10/02 05:56:05;;;;;;;57.53;20.63;;;;;;;13.75;100.00;102050.59;5033312;28;20026;-80
2023/10/02 05:58:41;;;;;;;60.10;21.60;;;;;;;13.74;100.00;102048.88;5033277;28;20037;-80
2023/10/02 06:01:18;;;;;;;66.40;23.27;;;;;;;13.78;100.00;102045.97;5033509;28;20095;-80
2023/10/02 06:03:51;;;;;;;56.90;22.25;;;;;;;13.82;100.00;102055.41;5033055;28;20462;-81
2023/10/02 06:06:21;;;;;;;60.83;22.75;;;;;;;13.87;100.00;102050.53;5034800;28;20068;-80
2023/10/02 06:08:51;;;;;;;58.72;22.05;;;;;;;13.91;100.00;102062.66;5036312;28;20033;-80
2023/10/02 06:11:28;;;;;;;56.10;22.30;;;;;;;13.93;100.00;102061.56;5036785;28;20535;-80
2023/10/02 06:13:58;;;;;;;55.80;22.48;;;;;;;13.95;100.00;102057.91;5036250;28;20018;-80
2023/10/02 06:16:29;;;;;;;71.43;23.65;;;;;;;13.97;100.00;102061.28;5036814;28;20025;-80
2023/10/02 06:19:01;;;;;;;51.70;22.23;;;;;;;14.03;100.00;102064.31;5036407;28;20032;-80
2023/10/02 06:22:13;;;;;;;63.28;24.48;;;;;;;14.13;100.00;102071.53;5036447;28;20033;-79
2023/10/02 06:24:28;;;;;;;61.25;23.35;;;;;;;14.20;100.00;102067.34;5032004;28;20493;-80
2023/10/02 06:27:05;;;;;;;61.08;22.80;;;;;;;14.26;100.00;102074.84;5018298;28;20080;-79
2023/10/02 06:29:33;;;;;;;64.80;24.50;;;;;;;14.34;100.00;102076.84;5036795;28;20038;-79
2023/10/02 06:31:58;;;;;;;61.45;24.50;;;;;;;14.42;100.00;102077.88;5035812;28;20079;-79
2023/10/02 06:34:37;;;;;;;66.65;23.90;;;;;;;14.50;100.00;102087.06;5036072;28;20033;-79
2023/10/02 06:37:07;;;;;;;60.08;22.95;;;;;;;14.58;100.00;102081.88;5035865;28;20446;-79
2023/10/02 06:39:39;;;;;;;51.42;21.02;;;;;;;14.67;100.00;102089.13;5035809;28;20029;-79
2023/10/02 06:42:06;;;;;;;53.85;24.17;;;;;;;14.77;100.00;102083.81;5035785;28;20033;-80
2023/10/02 06:44:41;;;;;;;58.08;23.58;;;;;;;14.86;100.00;102072.28;5035395;28;20474;-81
2023/10/02 06:47:11;;;;;;;57.00;22.73;;;;;;;14.91;100.00;102071.84;5036441;28;20029;-80
2023/10/02 06:49:39;;;;;;;54.07;22.27;;;;;;;14.97;100.00;102066.81;5035368;28;20389;-82
2023/10/02 06:52:15;;;;;;;58.35;21.90;;;;;;;15.02;100.00;102063.72;5035436;28;20053;-81
2023/10/02 06:54:45;;;;;;;60.78;23.45;;;;;;;15.09;100.00;102074.72;5036000;28;20057;-79
2023/10/02 06:57:15;;;;;;;56.15;22.42;;;;;;;15.13;100.00;102085.00;5035017;28;20047;-78
2023/10/02 06:59:51;;;;;;;54.97;22.33;;;;;;;15.22;100.00;102085.19;5034975;28;20120;-79
2023/10/02 07:02:17;;;;;;;55.78;22.50;;;;;;;15.30;100.00;102082.63;5035487;28;20037;-80
2023/10/02 07:04:44;;;;;;;54.13;22.17;;;;;;;15.40;100.00;102088.00;5034990;28;20068;-79
2023/10/02 07:07:12;;;;;;;55.42;21.13;;;;;;;15.51;100.00;102087.88;5034836;28;20069;-79
2023/10/02 07:09:39;;;;;;;52.35;21.35;;;;;;;15.59;100.00;102088.00;5035060;28;20030;-79
2023/10/02 07:12:08;;;;;;;48.85;20.77;;;;;;;15.62;100.00;102087.72;5034458;28;20453;-79
2023/10/02 07:14:36;;;;;;;51.90;21.70;;;;;;;15.69;100.00;102085.34;5034745;28;20037;-77
2023/10/02 07:17:17;;;;;;;49.35;20.65;;;;;;;15.75;100.00;102086.59;5035204;28;20138;-78
2023/10/02 07:19:49;;;;;;;50.03;20.67;;;;;;;15.78;100.00;102068.41;5034830;28;20053;-78
2023/10/02 07:22:25;;;;;;;51.00;21.00;;;;;;;15.84;100.00;102067.00;5034545;28;20445;-77
2023/10/02 07:24:56;;;;;;;47.20;21.73;;;;;;;15.90;100.00;102076.28;5034536;28;20060;-79
2023/10/02 07:27:24;;;;;;;45.60;20.58;;;;;;;15.96;100.00;102090.00;5034649;28;20036;-78
2023/10/02 07:29:58;;;;;;;44.78;20.02;;;;;;;16.02;100.00;102102.00;5034759;28;20040;-78
2023/10/02 07:32:33;;;;;;;40.35;19.35;;;;;;;16.04;100.00;102108.06;5034841;28;20029;-77
2023/10/02 07:35:19;;;;;;;43.50;18.98;;;;;;;16.06;100.00;102108.75;5034794;28;20072;-81
2023/10/02 07:37:57;;;;;;;37.80;17.85;;;;;;;16.13;100.00;102101.81;5035011;28;20063;-80
2023/10/02 07:40:26;;;;;;;50.03;19.80;;;;;;;16.20;100.00;102105.63;5034288;28;20092;-79
2023/10/02 07:42:52;;;;;;;44.83;19.70;;;;;;;16.30;100.00;102115.47;5034238;28;20084;-78
2023/10/02 07:45:30;;;;;;;41.90;19.77;;;;;;;16.43;100.00;102120.53;5034610;28;20030;-79
2023/10/02 07:48:08;;;;;;;42.08;18.08;;;;;;;16.55;100.00;102112.13;5034517;28;20034;-80
2023/10/02 07:50:34;;;;;;;42.78;18.65;;;;;;;16.65;100.00;102114.78;5018233;28;20061;-80
2023/10/02 07:53:06;;;;;;;41.60;18.38;;;;;;;16.75;100.00;102114.75;5034092;28;20091;-81
2023/10/02 07:55:34;;;;;;;43.78;19.35;;;;;;;16.77;100.00;102112.75;5034482;28;20045;-80
2023/10/02 07:58:00;;;;;;;37.50;18.38;;;;;;;16.77;100.00;102109.22;5034131;28;20036;-81
2023/10/02 08:00:38;;;;;;;37.80;18.70;;;;;;;16.71;100.00;102118.72;5033952;28;20026;-79
2023/10/02 08:03:32;;;;;;;39.85;18.52;;;;;;;16.65;100.00;102122.84;5033974;28;20500;-79
2023/10/02 08:05:58;;;;;;;37.75;18.27;;;;;;;16.66;100.00;102112.94;5033185;28;20474;-80
2023/10/02 08:08:33;;;;;;;43.28;19.13;;;;;;;16.71;100.00;102113.34;5034081;28;20026;-78
2023/10/02 08:11:10;;;;;;;40.08;18.30;;;;;;;16.80;100.00;102090.97;5033914;28;20099;-77
2023/10/02 08:13:36;;;;;;;45.17;18.90;;;;;;;16.90;100.00;102093.63;5034461;28;20025;-76
2023/10/02 08:16:14;;;;;;;39.45;18.63;;;;;;;17.01;100.00;102089.88;5033675;28;20465;-76
2023/10/02 08:18:58;;;;;;;46.35;19.02;;;;;;;17.10;100.00;102095.19;5033138;28;20171;-77
2023/10/02 08:21:46;;;;;;;37.10;18.00;;;;;;;17.18;100.00;102090.91;5034503;28;20084;-77
2023/10/02 08:24:13;;;;;;;41.80;18.60;;;;;;;17.25;100.00;102089.28;5033865;28;20560;-77
2023/10/02 08:26:45;;;;;;;42.75;19.45;;;;;;;17.30;100.00;102088.84;5034283;28;20041;-77
2023/10/02 08:29:15;;;;;;;43.75;18.63;;;;;;;17.40;100.00;102085.06;5033510;28;20083;-76
2023/10/02 08:31:43;;;;;;;41.35;17.90;;;;;;;17.50;100.00;102086.84;5033485;28;20045;-76
2023/10/02 08:34:24;;;;;;;41.70;17.90;;;;;;;17.60;100.00;102090.28;5033616;28;20128;-77
2023/10/02 08:37:09;;;;;;;38.75;18.77;;;;;;;17.73;100.00;102098.78;5033989;28;20026;-78
2023/10/02 08:39:36;;;;;;;40.72;17.67;;;;;;;17.97;100.00;102102.72;5033569;28;20030;-78
2023/10/02 08:42:10;;;;;;;33.03;16.05;;;;;;;18.24;100.00;102090.09;5033349;28;20082;-75
2023/10/02 08:44:40;;;;;;;37.47;17.65;;;;;;;18.45;100.00;102098.66;5034324;28;20029;-77
2023/10/02 08:47:24;;;;;;;39.45;17.23;;;;;;;18.73;100.00;102106.50;5032141;28;20083;-77
2023/10/02 08:50:11;;;;;;;38.10;16.65;;;;;;;18.99;100.00;102097.56;5033950;28;20123;-76
2023/10/02 08:52:47;;;;;;;37.75;16.98;;;;;;;19.03;100.00;102098.91;5033438;28;20030;-76
2023/10/02 08:58:17;;;;;;;40.15;17.20;;;;;;;18.93;100.00;102087.41;5033959;28;20055;-77
2023/10/02 09:01:17;;;;;;;34.67;17.48;;;;;;;18.85;100.00;102083.69;5033421;28;20064;-78
2023/10/02 09:03:46;;;;;;;42.20;17.20;;;;;;;18.93;100.00;102085.56;5033561;28;20099;-77
2023/10/02 09:06:32;;;;;;;39.92;17.58;;;;;;;19.09;100.00;102086.59;5033279;28;20040;-77
2023/10/02 09:09:21;;;;;;;38.95;17.20;;;;;;;19.47;100.00;102098.66;5033254;28;20033;-77
2023/10/02 09:11:52;;;;;;;35.67;16.25;;;;;;;19.70;100.00;102088.00;5033418;28;20063;-76
2023/10/02 09:16:45;;;;;;;31.83;16.25;;;;;;;19.64;100.00;102077.88;5033186;28;20034;-76
2023/10/02 09:19:30;;;;;;;35.03;17.48;;;;;;;19.61;100.00;102083.63;5033663;28;20100;-76
2023/10/02 09:22:06;;;;;;;34.00;15.73;;;;;;;19.55;100.00;102079.75;5033110;28;20474;-76
2023/10/02 09:24:35;;;;;;;31.55;16.13;;;;;;;19.58;100.00;102075.03;5016045;28;20041;-77
2023/10/02 09:27:23;;;;;;;33.67;15.55;;;;;;;19.63;100.00;102075.34;5033583;28;20067;-76
2023/10/02 09:30:17;;;;;;;35.78;15.48;;;;;;;19.67;100.00;102080.25;5033209;28;20032;-76
2023/10/02 09:32:51;;;;;;;31.20;15.02;;;;;;;19.82;100.00;102079.59;5033492;28;20092;-76
2023/10/02 09:35:29;;;;;;;35.42;15.07;;;;;;;19.92;100.00;102068.63;5033745;28;20029;-75
2023/10/02 09:38:06;;;;;;;30.33;14.27;;;;;;;20.06;100.00;102063.38;5033081;28;20044;-75
2023/10/02 09:40:54;;;;;;;25.02;13.55;;;;;;;20.12;100.00;102059.13;5033046;28;20026;-76
2023/10/02 09:43:24;;;;;;;28.20;13.68;;;;;;;20.14;100.00;102053.53;5037207;28;20033;-77
2023/10/02 09:45:55;;;;;;;26.00;12.70;;;;;;;20.48;100.00;102057.81;5037272;28;20413;-76
2023/10/02 09:48:46;;;;;;;30.02;13.25;;;;;;;20.87;100.00;102057.84;5037120;28;20102;-77
2023/10/02 09:51:27;;;;;;;29.02;12.60;;;;;;;21.44;100.00;102050.34;5037670;28;20027;-77
2023/10/02 09:54:04;;;;;;;;;;;;;;;21.71;100.00;102045.41;5036948;28;20056;-77
2023/10/02 09:57:04;;;;;;;27.00;13.27;;;;;;;21.90;100.00;102044.88;5036424;28;19913;-80
2023/10/02 09:59:37;;;;;;;27.60;13.10;;;;;;;21.81;100.00;102046.81;5020877;28;20029;-77
2023/10/02 10:02:09;;;;;;;25.42;12.07;;;;;;;21.59;100.00;102048.56;5036347;28;20079;-77
2023/10/02 10:05:39;;;;;;;29.88;13.63;;;;;;;21.31;100.00;102043.66;5036597;28;20026;-77
2023/10/02 10:08:17;;;;;;;26.35;12.77;;;;;;;21.53;100.00;102041.16;5036234;28;20037;-77
2023/10/02 10:11:10;;;;;;;25.63;12.32;;;;;;;22.20;100.00;102039.47;5036241;28;20038;-77
2023/10/02 10:13:37;;;;;;;31.98;12.35;;;;;;;22.69;100.00;102038.88;5036244;28;20535;-77
2023/10/02 10:16:21;;;;;;;25.17;11.23;;;;;;;23.06;100.00;102037.00;5036070;28;20497;-75
2023/10/02 10:21:57;;;;;;;22.50;10.70;;;;;;;23.16;100.00;102041.28;5036532;28;20038;-77
2023/10/02 10:24:56;;;;;;;21.40;10.32;;;;;;;22.98;100.00;102047.97;5036468;28;20026;-76
2023/10/02 10:27:43;;;;;;;19.83;10.25;;;;;;;22.89;100.00;102043.69;5036732;28;20029;-77
2023/10/02 10:35:52;;;;;;;23.15;11.63;;;;;;;23.15;100.00;102028.72;5035984;28;20044;-76
2023/10/02 10:38:29;;;;;;;25.92;11.55;;;;;;;23.23;100.00;102031.34;5035885;28;20037;-76
2023/10/02 10:41:01;;;;;;;20.98;11.90;;;;;;;23.26;100.00;102035.50;5036004;28;20026;-76
2023/10/02 10:46:14;;;;;;;20.15;10.20;;;;;;;23.19;100.00;102030.03;5035859;28;20037;-77
2023/10/02 10:48:45;;;;;;;17.35;10.10;;;;;;;23.10;100.00;102034.75;5035480;28;20034;-77
2023/10/02 10:51:22;;;;;;;18.73;9.25;;;;;;;22.90;100.00;102020.97;5036139;28;20037;-76
2023/10/02 10:53:54;;;;;;;18.50;9.60;;;;;;;22.66;100.00;102030.25;5034871;28;20473;-76
2023/10/02 10:56:22;;;;;;;17.77;8.30;;;;;;;22.64;100.00;102035.06;5035554;28;20421;-76
2023/10/02 10:58:53;;;;;;;15.80;8.27;;;;;;;22.76;100.00;102033.50;5035460;28;20068;-76
2023/10/02 11:01:21;;;;;;;15.63;8.07;;;;;;;22.80;100.00;102031.28;5018525;28;20425;-75
2023/10/02 11:03:58;;;;;;;17.90;8.02;;;;;;;22.69;100.00;102021.75;5035332;28;20072;-75
2023/10/02 11:06:24;;;;;;;21.42;8.60;;;;;;;22.62;100.00;102018.13;5035582;28;20095;-75
2023/10/02 11:09:11;;;;;;;17.70;8.32;;;;;;;22.56;100.00;102018.88;5034896;28;20096;-76
2023/10/02 11:11:49;;;;;;;22.77;8.50;;;;;;;22.53;100.00;102012.81;5035611;28;20033;-76
2023/10/02 11:14:33;;;;;;;17.33;8.23;;;;;;;22.49;100.00;102018.81;5035575;28;20100;-76
2023/10/02 11:17:01;;;;;;;17.45;7.80;;;;;;;22.68;100.00;102022.78;5035434;28;20498;-76
2023/10/02 11:22:14;;;;;;;15.40;8.75;;;;;;;22.67;100.00;102010.25;5035054;28;20041;-76
2023/10/02 11:25:04;;;;;;;21.17;9.20;;;;;;;22.79;100.00;102008.72;5036514;28;20033;-76
2023/10/02 11:27:29;;;;;;;17.17;10.05;;;;;;;22.85;100.00;102010.66;5019762;28;20469;-77
2023/10/02 11:30:01;;;;;;;22.23;10.20;;;;;;;22.87;100.00;101997.75;5034558;28;20037;-76
2023/10/02 11:32:46;;;;;;;15.35;8.55;;;;;;;22.77;100.00;101993.69;5035132;28;20100;-76
2023/10/02 11:35:11;;;;;;;17.00;9.20;;;;;;;22.86;100.00;101990.63;5034245;28;20405;-76
2023/10/02 11:37:45;;;;;;;17.92;8.65;;;;;;;22.96;100.00;101994.91;5034465;28;20047;-77
2023/10/02 11:40:10;;;;;;;24.23;9.98;;;;;;;23.06;100.00;101990.84;5034458;28;20493;-77
2023/10/02 11:42:36;;;;;;;18.80;9.82;;;;;;;23.20;100.00;101982.88;5034976;28;20035;-77
2023/10/02 11:45:02;;;;;;;19.40;8.80;;;;;;;23.28;100.00;101990.03;5034402;28;20030;-77
2023/10/02 11:47:28;;;;;;;20.02;8.98;;;;;;;23.24;100.00;101987.69;5034542;28;20524;-76
2023/10/02 11:49:54;;;;;;;21.35;9.68;;;;;;;23.19;100.00;101982.00;5016603;28;20029;-77
2023/10/02 11:52:19;;;;;;;23.80;10.20;;;;;;;23.17;100.00;101975.06;5034097;28;20025;-77
2023/10/02 11:54:52;;;;;;;18.45;10.00;;;;;;;23.10;100.00;101971.50;5034249;28;20144;-78
2023/10/02 11:57:18;;;;;;;18.52;8.60;;;;;;;23.07;100.00;101969.97;5016533;28;20083;-77
2023/10/02 11:59:50;;;;;;;15.93;8.30;;;;;;;23.19;100.00;101971.16;5034364;28;20041;-78
2023/10/02 12:02:19;;;;;;;21.20;7.88;;;;;;;23.32;100.00;101965.00;5034119;28;20100;-78
2023/10/02 12:04:45;;;;;;;15.52;6.82;;;;;;;23.44;100.00;101951.72;5016020;28;20439;-78
2023/10/02 12:07:12;;;;;;;17.63;7.05;;;;;;;23.40;100.00;101945.00;5033762;28;20030;-78
2023/10/02 12:09:38;;;;;;;13.00;6.38;;;;;;;23.64;100.00;101948.28;5034092;28;20029;-80
2023/10/02 12:12:04;;;;;;;15.27;7.60;;;;;;;23.74;100.00;101956.94;5033920;28;20045;-78
2023/10/02 12:14:30;;;;;;;13.27;6.35;;;;;;;23.84;100.00;101937.53;5015988;28;20030;-76